Terminal Aerodrome Forecast
Issued by NWS Cleveland, OH

Home | Current Version | Previous Version | Graphics & Text | Print | Product List | Glossary Off
Versions: 1 2 3 4 5 6 7 8 9 10 11 12

546
FTUS41 KCLE 190520
TAFERI
TAF
KERI 190520Z 1906/2006 19003KT P6SM SKC
     FM191600 25008KT P6SM SCT045
     FM192200 26010KT P6SM SCT250
     FM200200 00000KT P6SM SCT250=

USA.gov is the U.S. government's official web portal to all federal, state and local government web resources and services.